Bookmark and Share
Track history (hours):
 

Cdry Blue

Last reported at 2014-Apr-24 12:19 UTC. Time now 2014-Apr-25 06:14 UTC.
Position N 38°18' W 000°27'.

Length 108 m; draft 4.5 m.

Type: Cargo ship. MMSI: 247289300.

NotesDate/timePositionNaut miles runAvg speedWind from/ knotsBaromVisibWave heightAir tempDewpointWater temp
2014-Apr-24 12:19N 38°18' W 000°27'11812.1
2014-Apr-24 02:33N 39°47' E 001°12'1313.2
2014-Apr-24 01:33N 39°59' E 001°21'1413.7
2014-Apr-24 00:33N 40°11' E 001°30'1413.7
2014-Apr-23 23:33N 40°22' E 001°39'1413.8
2014-Apr-23 22:33N 40°34' E 001°48'1313.4
2014-Apr-23 21:33N 40°46' E 001°57'1414.3
2014-Apr-23 20:34N 40°59' E 002°04'1313.4
2014-Apr-23 19:33N 41°12' E 002°09'9 8.1
2014-Apr-23 18:29N 41°21' E 002°09'0 0.0
2014-Apr-23 17:26N 41°21' E 002°09'0 0.0
2014-Apr-23 16:32N 41°21' E 002°09'0 0.0
2014-Apr-23 15:32N 41°21' E 002°09'0 0.0
2014-Apr-23 14:20N 41°21' E 002°09'0 0.0
2014-Apr-23 13:27N 41°21' E 002°09'0 0.0
2014-Apr-23 12:32N 41°21' E 002°09'0 0.0
2014-Apr-23 11:32N 41°21' E 002°09'0 0.0
2014-Apr-23 10:32N 41°21' E 002°09'0 0.0
2014-Apr-23 09:32N 41°21' E 002°09'0 0.0
2014-Apr-22 17:16N 41°21' E 002°09'0 0.0
2014-Apr-22 16:32N 41°21' E 002°09'  
2014-Apr-18 22:08N 41°21' E 002°09'0 0.0
2014-Apr-18 20:32N 41°21' E 002°09'0 0.0
2014-Apr-18 19:32N 41°21' E 002°09'0 0.0
2014-Apr-18 18:15N 41°21' E 002°09'0 0.0
2014-Apr-18 17:04N 41°21' E 002°09'1 0.1
2014-Apr-18 10:33N 41°20' E 002°10'1 0.6
2014-Apr-18 09:21N 41°20' E 002°11'0 0.1
2014-Apr-18 08:04N 41°20' E 002°11'0 0.0
2014-Apr-18 07:22N 41°20' E 002°11'0 0.0
2014-Apr-18 05:16N 41°20' E 002°11'0 0.0
2014-Apr-18 04:19N 41°20' E 002°11'0 0.0
2014-Apr-18 03:28N 41°20' E 002°11'0 0.0
2014-Apr-18 01:04N 41°20' E 002°11'0 0.0
2014-Apr-18 00:28N 41°20' E 002°11'0 0.1
2014-Apr-17 23:16N 41°20' E 002°11'0 0.0
2014-Apr-17 22:28N 41°20' E 002°11'0 0.1
2014-Apr-17 20:10N 41°20' E 002°11'0 0.0
2014-Apr-17 16:05N 41°20' E 002°11'1 0.2
2014-Apr-17 13:22N 41°20' E 002°11'8 9.6
2014-Apr-17 12:33N 41°12' E 002°15'1212.1
2014-Apr-17 11:33N 41°02' E 002°23'1212.0
2014-Apr-17 10:33N 40°52' E 002°32'1212.1
2014-Apr-17 09:33N 40°42' E 002°40'1212.0
2014-Apr-17 08:33N 40°32' E 002°49'1212.2
2014-Apr-17 07:33N 40°21' E 002°58'1212.3
2014-Apr-17 06:33N 40°11' E 003°07'2311.6
2014-Apr-17 04:33N 39°56' E 003°30'1211.8
2014-Apr-17 03:33N 39°53' E 003°45'1311.9
2014-Apr-17 02:30N 39°49' E 004°00'1111.9
2014-Apr-17 01:32N 39°45' E 004°14'29511.2
2014-Apr-15 23:20N 37°26' E 009°47'10 9.3
2014-Apr-15 22:15N 37°18' E 009°55'3 4.1
2014-Apr-15 21:26N 37°16' E 009°51'  

Dump ship's entire track history

sailing weather and tide predictions

Cdry Blue — ICOB — position and weather